Pacific Eden — 2IYM9 — position and weather

sailwx.info

Track history (hours):
 
Tides and Currents Weather Stations Pressure Air Temp Water Temp Dewpoint Dewpoint Depression Visibility Wind Speed Wind Dir Waves Ship Positions

Pacific Eden

Last reported at 2018-Jan-23 04:00 UTC. Time now 2018-Jan-23 04:15 UTC.
Position S 34°06' E 152°33'.

Length 219 m; draft 7.7 m.

Type: Passenger vessel. MMSI: 235113819.

Date/timePositionNaut miles runAvg speedWind from/ knotsBaromVisibWave heightAir tempDewpointWater temp
2018-Jan-23 04:00S 34°06' E 152°33'5 9.4
2018-Jan-23 03:30S 34°03' E 152°37'5 9.5
2018-Jan-23 03:00S 33°59' E 152°39'5 9.8
2018-Jan-23 02:30S 33°54' E 152°42'5 9.5
2018-Jan-23 02:00S 33°50' E 152°45'5 9.5
2018-Jan-23 01:30S 33°46' E 152°48'5 9.3
2018-Jan-23 01:00S 33°42' E 152°50'5 9.3
2018-Jan-23 00:30S 33°38' E 152°53'5 9.2
2018-Jan-23 00:00S 33°34' E 152°56'5 9.1
2018-Jan-22 23:30S 33°30' E 152°58'5 9.0
2018-Jan-22 23:00S 33°26' E 153°01'7 9.5
2018-Jan-22 22:17S 33°20' E 153°05'5 9.7
2018-Jan-22 21:49S 33°16' E 153°07'3 9.6
2018-Jan-22 21:30S 33°13' E 153°09'5 9.6
2018-Jan-22 21:00S 33°09' E 153°12'5 9.6
2018-Jan-22 20:30S 33°05' E 153°15'13 9.7
2018-Jan-22 19:09S 32°53' E 153°22'1 9.8
2018-Jan-22 19:00S 32°52' E 153°23'24 8.5
2018-Jan-22 16:09S 32°58' E 152°55'2 9.4
2018-Jan-22 15:59S 32°58' E 152°53'4 9.2
2018-Jan-22 15:30S 33°00' E 152°48'6 9.3
2018-Jan-22 14:53S 33°02' E 152°42'4 9.8
2018-Jan-22 14:29S 33°05' E 152°39'5 9.6
2018-Jan-22 13:56S 33°09' E 152°34'4 9.5
2018-Jan-22 13:30S 33°12' E 152°31'5 9.5
2018-Jan-22 13:00S 33°16' E 152°28'5 9.3
2018-Jan-22 12:30S 33°19' E 152°24'5 9.4
2018-Jan-22 12:00S 33°23' E 152°20'5 9.4
2018-Jan-22 11:30S 33°26' E 152°17'5 9.4
2018-Jan-22 11:00S 33°30' E 152°13'5 9.3
2018-Jan-22 10:30S 33°34' E 152°09'5 9.3
2018-Jan-22 10:00S 33°37' E 152°06'5 9.4
2018-Jan-22 09:30S 33°40' E 152°01'5 9.8
2018-Jan-22 09:00S 33°42' E 151°56'4 8.8
2018-Jan-22 08:30S 33°43' E 151°51'5 9.7
2018-Jan-22 08:01S 33°45' E 151°45'4233.5
2018-Jan-22 08:00S 33°42' E 151°42'713.8 040 / 321008.410.8 24.021.023.0
2018-Jan-22 07:31S 33°47' E 151°37'714.8
2018-Jan-22 07:00S 33°50' E 151°29'713.8
2018-Jan-22 06:31S 33°52' E 151°21'5 9.3
2018-Jan-22 06:00S 33°51' E 151°15'3 6.5
2018-Jan-22 05:30S 33°52' E 151°11'0 0.0
2018-Jan-21 20:37S 33°52' E 151°12'0 1.9
2018-Jan-21 20:30S 33°52' E 151°12'1 2.4
2018-Jan-21 20:00S 33°51' E 151°13'4 9.1
2018-Jan-21 19:30S 33°50' E 151°18'510.5
2018-Jan-21 19:00S 33°52' E 151°24'5 9.4
2018-Jan-21 18:30S 33°55' E 151°28'612.5
2018-Jan-21 18:00S 34°01' E 151°31'714.9
2018-Jan-21 17:30S 34°08' E 151°30'714.9
2018-Jan-21 17:00S 34°15' E 151°26'816.4
2018-Jan-21 16:31S 34°23' E 151°23'918.0
2018-Jan-21 16:00S 34°31' E 151°20'917.8
2018-Jan-21 15:31S 34°40' E 151°17'917.4
2018-Jan-21 15:00S 34°48' E 151°14'2126.3
2018-Jan-21 15:00S 34°48' E 151°12'917.6 020 / 32
2018-Jan-21 14:29S 34°57' E 151°11'817.4
2018-Jan-21 14:00S 35°05' E 151°08'917.6
2018-Jan-21 13:30S 35°13' E 151°05'917.3
2018-Jan-21 13:00S 35°22' E 151°03'917.2
2018-Jan-21 12:30S 35°30' E 150°60'817.0
2018-Jan-21 12:01S 35°38' E 150°57'817.0
2018-Jan-21 11:31S 35°46' E 150°54'916.9
2018-Jan-21 11:00S 35°54' E 150°50'816.9
2018-Jan-21 10:31S 36°02' E 150°47'816.9
2018-Jan-21 10:01S 36°10' E 150°45'917.2
2018-Jan-21 09:30S 36°19' E 150°42'917.3
2018-Jan-21 09:00S 36°27' E 150°38'3718.3
2018-Jan-21 07:00S 37°02' E 150°26'917.9
2018-Jan-21 06:30S 37°11' E 150°23'917.8
2018-Jan-21 06:00S 37°19' E 150°19'917.8
2018-Jan-21 05:30S 37°28' E 150°16'917.6
2018-Jan-21 05:01S 37°36' E 150°13'816.7
2018-Jan-21 04:30S 37°43' E 150°07'917.6
2018-Jan-21 04:00S 37°48' E 149°58'917.8
2018-Jan-21 03:30S 37°54' E 149°48'918.4
2018-Jan-21 03:00S 37°59' E 149°39'918.3
2018-Jan-21 02:30S 38°04' E 149°30'1018.4
2018-Jan-21 01:57S 38°10' E 149°19'818.7
2018-Jan-21 01:30S 38°15' E 149°11'918.5
2018-Jan-21 00:59S 38°21' E 149°01'918.6
2018-Jan-21 00:30S 38°26' E 148°51'1018.9
2018-Jan-20 23:58S 38°32' E 148°41'1018.4
2018-Jan-20 23:25S 38°38' E 148°30'818.9
2018-Jan-20 22:59S 38°43' E 148°22'918.7
2018-Jan-20 22:30S 38°47' E 148°12'1018.9
2018-Jan-20 22:00S 38°50' E 148°01'1019.3
2018-Jan-20 21:30S 38°54' E 147°49'1019.5
2018-Jan-20 21:00S 38°57' E 147°37'1019.8
2018-Jan-20 20:30S 39°01' E 147°26'1019.7
2018-Jan-20 20:00S 39°04' E 147°14'1019.6
2018-Jan-20 19:30S 39°07' E 147°02'1019.8
2018-Jan-20 18:59S 39°11' E 146°49'919.1
2018-Jan-20 18:30S 39°14' E 146°38'918.8
2018-Jan-20 18:01S 39°16' E 146°26'918.6
2018-Jan-20 17:31S 39°15' E 146°14'918.7
2018-Jan-20 17:00S 39°12' E 146°03'919.0
2018-Jan-20 16:31S 39°07' E 145°52'1019.2
2018-Jan-20 16:00S 39°03' E 145°41'918.7
2018-Jan-20 15:31S 38°59' E 145°31'1118.8
2018-Jan-20 14:55S 38°54' E 145°18'818.7
2018-Jan-20 14:29S 38°50' E 145°09'918.8
2018-Jan-20 14:00S 38°46' E 144°58'4010.5
2018-Jan-20 10:10S 38°06' E 144°55'417.1
2018-Jan-20 09:57S 38°02' E 144°55'715.0
2018-Jan-20 09:31S 37°56' E 144°56'5 9.5
2018-Jan-20 09:00S 37°51' E 144°56'0 0.0
2018-Jan-20 06:46S 37°51' E 144°56'0 0.0
2018-Jan-20 06:28S 37°51' E 144°56'0 0.0
2018-Jan-20 05:34S 37°51' E 144°56'0 0.0
2018-Jan-20 05:16S 37°51' E 144°56'0 0.0
2018-Jan-20 04:49S 37°51' E 144°56'0 0.0
2018-Jan-20 04:10S 37°51' E 144°56'0 0.0
2018-Jan-20 03:55S 37°51' E 144°56'0 0.0
2018-Jan-20 03:25S 37°51' E 144°56'0 0.0
2018-Jan-20 02:55S 37°51' E 144°56'0 0.0
2018-Jan-20 02:28S 37°51' E 144°56'0 0.0
2018-Jan-20 01:34S 37°51' E 144°56'0 0.0
2018-Jan-20 01:28S 37°51' E 144°56'0 0.0
2018-Jan-20 00:55S 37°51' E 144°56'0 0.0
2018-Jan-20 00:19S 37°51' E 144°56'0 0.0
2018-Jan-19 21:49S 37°51' E 144°56'0 0.0
2018-Jan-19 19:58S 37°51' E 144°56'0 0.0
2018-Jan-19 18:49S 37°51' E 144°56'0 0.0
2018-Jan-19 18:28S 37°51' E 144°56'0 0.0
2018-Jan-19 17:58S 37°51' E 144°56'0 0.0
2018-Jan-19 17:22S 37°51' E 144°56'0 0.0
2018-Jan-19 16:52S 37°51' E 144°56'0 0.0
2018-Jan-19 16:16S 37°51' E 144°56'0 0.0
2018-Jan-19 15:49S 37°51' E 144°56'0 0.0
2018-Jan-19 15:25S 37°51' E 144°56'0 0.0
2018-Jan-19 14:55S 37°51' E 144°56'0 0.0
2018-Jan-19 14:28S 37°51' E 144°56'0 0.0
2018-Jan-19 13:55S 37°51' E 144°56'0 0.0
2018-Jan-19 13:16S 37°51' E 144°56'0 0.0
2018-Jan-19 12:58S 37°51' E 144°56'0 0.0
2018-Jan-19 12:22S 37°51' E 144°56'0 0.0
2018-Jan-19 11:10S 37°51' E 144°56'0 0.0
2018-Jan-19 10:58S 37°51' E 144°56'0 0.0
2018-Jan-19 09:43S 37°51' E 144°56'0 0.0
2018-Jan-19 09:13S 37°51' E 144°56'0 0.0
2018-Jan-19 07:28S 37°51' E 144°56'0 0.0
2018-Jan-19 06:04S 37°51' E 144°56'0 0.0
2018-Jan-19 05:40S 37°51' E 144°56'0 0.0
2018-Jan-19 05:28S 37°51' E 144°56'0 0.0
2018-Jan-19 04:49S 37°51' E 144°56'0 0.0
2018-Jan-19 04:28S 37°51' E 144°56'0 0.0
2018-Jan-19 03:52S 37°51' E 144°56'0 0.0
2018-Jan-18 22:22S 37°51' E 144°56'0 0.2
2018-Jan-18 22:00S 37°51' E 144°56'0 0.8
2018-Jan-18 21:28S 37°51' E 144°56'5 9.7
2018-Jan-18 21:00S 37°56' E 144°56'611.6
2018-Jan-18 20:29S 38°02' E 144°55'35 8.8
2018-Jan-18 16:31S 38°35' E 144°40'5018.1
2018-Jan-18 13:45S 39°01' E 145°35'520.0
2018-Jan-18 13:31S 39°03' E 145°41'1919.5
2018-Jan-18 12:33S 39°09' E 146°03'118.9
2018-Jan-18 12:30S 39°09' E 146°04'1020.1
2018-Jan-18 12:00S 39°11' E 146°17'1020.5
2018-Jan-18 11:30S 39°09' E 146°30'1020.2
2018-Jan-18 11:01S 39°06' E 146°42'1020.5
2018-Jan-18 10:30S 39°02' E 146°55'1020.2
2018-Jan-18 10:00S 38°59' E 147°07'1020.2
2018-Jan-18 09:30S 38°56' E 147°19'1020.2
2018-Jan-18 09:00S 38°53' E 147°32'1019.9
2018-Jan-18 08:31S 38°50' E 147°43'1019.8
2018-Jan-18 08:00S 38°47' E 147°56'1119.9
2018-Jan-18 07:29S 38°44' E 148°09'919.5
2018-Jan-18 07:00S 38°39' E 148°19'1020.1
2018-Jan-18 06:31S 38°33' E 148°29'1120.3
2018-Jan-18 05:59S 38°27' E 148°41'1020.4
2018-Jan-18 05:30S 38°22' E 148°51'1120.2
2018-Jan-18 04:59S 38°16' E 149°03'919.9
2018-Jan-18 04:30S 38°11' E 149°12'1119.8
2018-Jan-18 03:57S 38°05' E 149°24'919.9
2018-Jan-18 03:30S 38°00' E 149°34'1019.9
2018-Jan-18 03:00S 37°55' E 149°44'1020.2
2018-Jan-18 02:31S 37°49' E 149°55'1020.4
2018-Jan-18 02:01S 37°44' E 150°05'1019.3
2018-Jan-18 01:29S 37°36' E 150°13'  
Track history (hours):
 
Tides and Currents Weather Stations Pressure Air Temp Water Temp Dewpoint Dewpoint Depression Visibility Wind Speed Wind Dir Waves Ship Positions

Pacific Eden

Last reported at 2018-Jan-23 04:00 UTC. Time now 2018-Jan-23 04:15 UTC.
Position S 34°06' E 152°33'.

Length 219 m; draft 7.7 m.

Type: Passenger vessel. MMSI: 235113819.

Date/timePositionNaut miles runAvg speedWind from/ knotsBaromVisibWave heightAir tempDewpointWater temp
2018-Jan-23 04:00S 34°06' E 152°33'5 9.4
2018-Jan-23 03:30S 34°03' E 152°37'5 9.5
2018-Jan-23 03:00S 33°59' E 152°39'5 9.8
2018-Jan-23 02:30S 33°54' E 152°42'5 9.5
2018-Jan-23 02:00S 33°50' E 152°45'5 9.5
2018-Jan-23 01:30S 33°46' E 152°48'5 9.3
2018-Jan-23 01:00S 33°42' E 152°50'5 9.3
2018-Jan-23 00:30S 33°38' E 152°53'5 9.2
2018-Jan-23 00:00S 33°34' E 152°56'5 9.1
2018-Jan-22 23:30S 33°30' E 152°58'5 9.0
2018-Jan-22 23:00S 33°26' E 153°01'7 9.5
2018-Jan-22 22:17S 33°20' E 153°05'5 9.7
2018-Jan-22 21:49S 33°16' E 153°07'3 9.6
2018-Jan-22 21:30S 33°13' E 153°09'5 9.6
2018-Jan-22 21:00S 33°09' E 153°12'5 9.6
2018-Jan-22 20:30S 33°05' E 153°15'13 9.7
2018-Jan-22 19:09S 32°53' E 153°22'1 9.8
2018-Jan-22 19:00S 32°52' E 153°23'24 8.5
2018-Jan-22 16:09S 32°58' E 152°55'2 9.4
2018-Jan-22 15:59S 32°58' E 152°53'4 9.2
2018-Jan-22 15:30S 33°00' E 152°48'6 9.3
2018-Jan-22 14:53S 33°02' E 152°42'4 9.8
2018-Jan-22 14:29S 33°05' E 152°39'5 9.6
2018-Jan-22 13:56S 33°09' E 152°34'4 9.5
2018-Jan-22 13:30S 33°12' E 152°31'5 9.5
2018-Jan-22 13:00S 33°16' E 152°28'5 9.3
2018-Jan-22 12:30S 33°19' E 152°24'5 9.4
2018-Jan-22 12:00S 33°23' E 152°20'5 9.4
2018-Jan-22 11:30S 33°26' E 152°17'5 9.4
2018-Jan-22 11:00S 33°30' E 152°13'5 9.3
2018-Jan-22 10:30S 33°34' E 152°09'5 9.3
2018-Jan-22 10:00S 33°37' E 152°06'5 9.4
2018-Jan-22 09:30S 33°40' E 152°01'5 9.8
2018-Jan-22 09:00S 33°42' E 151°56'4 8.8
2018-Jan-22 08:30S 33°43' E 151°51'5 9.7
2018-Jan-22 08:01S 33°45' E 151°45'4233.5
2018-Jan-22 08:00S 33°42' E 151°42'713.8 040 / 321008.410.8 24.021.023.0
2018-Jan-22 07:31S 33°47' E 151°37'714.8
2018-Jan-22 07:00S 33°50' E 151°29'713.8
2018-Jan-22 06:31S 33°52' E 151°21'5 9.3
2018-Jan-22 06:00S 33°51' E 151°15'3 6.5
2018-Jan-22 05:30S 33°52' E 151°11'0 0.0
2018-Jan-21 20:37S 33°52' E 151°12'0 1.9
2018-Jan-21 20:30S 33°52' E 151°12'1 2.4
2018-Jan-21 20:00S 33°51' E 151°13'4 9.1
2018-Jan-21 19:30S 33°50' E 151°18'510.5
2018-Jan-21 19:00S 33°52' E 151°24'5 9.4
2018-Jan-21 18:30S 33°55' E 151°28'612.5
2018-Jan-21 18:00S 34°01' E 151°31'714.9
2018-Jan-21 17:30S 34°08' E 151°30'714.9
2018-Jan-21 17:00S 34°15' E 151°26'816.4
2018-Jan-21 16:31S 34°23' E 151°23'918.0
2018-Jan-21 16:00S 34°31' E 151°20'917.8
2018-Jan-21 15:31S 34°40' E 151°17'917.4
2018-Jan-21 15:00S 34°48' E 151°14'2126.3
2018-Jan-21 15:00S 34°48' E 151°12'917.6 020 / 32
2018-Jan-21 14:29S 34°57' E 151°11'817.4
2018-Jan-21 14:00S 35°05' E 151°08'917.6
2018-Jan-21 13:30S 35°13' E 151°05'917.3
2018-Jan-21 13:00S 35°22' E 151°03'917.2
2018-Jan-21 12:30S 35°30' E 150°60'817.0
2018-Jan-21 12:01S 35°38' E 150°57'817.0
2018-Jan-21 11:31S 35°46' E 150°54'916.9
2018-Jan-21 11:00S 35°54' E 150°50'816.9
2018-Jan-21 10:31S 36°02' E 150°47'816.9
2018-Jan-21 10:01S 36°10' E 150°45'917.2
2018-Jan-21 09:30S 36°19' E 150°42'917.3
2018-Jan-21 09:00S 36°27' E 150°38'3718.3
2018-Jan-21 07:00S 37°02' E 150°26'917.9
2018-Jan-21 06:30S 37°11' E 150°23'917.8
2018-Jan-21 06:00S 37°19' E 150°19'917.8
2018-Jan-21 05:30S 37°28' E 150°16'917.6
2018-Jan-21 05:01S 37°36' E 150°13'816.7
2018-Jan-21 04:30S 37°43' E 150°07'917.6
2018-Jan-21 04:00S 37°48' E 149°58'917.8
2018-Jan-21 03:30S 37°54' E 149°48'918.4
2018-Jan-21 03:00S 37°59' E 149°39'918.3
2018-Jan-21 02:30S 38°04' E 149°30'1018.4
2018-Jan-21 01:57S 38°10' E 149°19'818.7
2018-Jan-21 01:30S 38°15' E 149°11'918.5
2018-Jan-21 00:59S 38°21' E 149°01'918.6
2018-Jan-21 00:30S 38°26' E 148°51'1018.9
2018-Jan-20 23:58S 38°32' E 148°41'1018.4
2018-Jan-20 23:25S 38°38' E 148°30'818.9
2018-Jan-20 22:59S 38°43' E 148°22'918.7
2018-Jan-20 22:30S 38°47' E 148°12'1018.9
2018-Jan-20 22:00S 38°50' E 148°01'1019.3
2018-Jan-20 21:30S 38°54' E 147°49'1019.5
2018-Jan-20 21:00S 38°57' E 147°37'1019.8
2018-Jan-20 20:30S 39°01' E 147°26'1019.7
2018-Jan-20 20:00S 39°04' E 147°14'1019.6
2018-Jan-20 19:30S 39°07' E 147°02'1019.8
2018-Jan-20 18:59S 39°11' E 146°49'919.1
2018-Jan-20 18:30S 39°14' E 146°38'918.8
2018-Jan-20 18:01S 39°16' E 146°26'918.6
2018-Jan-20 17:31S 39°15' E 146°14'918.7
2018-Jan-20 17:00S 39°12' E 146°03'919.0
2018-Jan-20 16:31S 39°07' E 145°52'1019.2
2018-Jan-20 16:00S 39°03' E 145°41'918.7
2018-Jan-20 15:31S 38°59' E 145°31'1118.8
2018-Jan-20 14:55S 38°54' E 145°18'818.7
2018-Jan-20 14:29S 38°50' E 145°09'918.8
2018-Jan-20 14:00S 38°46' E 144°58'4010.5
2018-Jan-20 10:10S 38°06' E 144°55'417.1
2018-Jan-20 09:57S 38°02' E 144°55'715.0
2018-Jan-20 09:31S 37°56' E 144°56'5 9.5
2018-Jan-20 09:00S 37°51' E 144°56'0 0.0
2018-Jan-20 06:46S 37°51' E 144°56'0 0.0
2018-Jan-20 06:28S 37°51' E 144°56'0 0.0
2018-Jan-20 05:34S 37°51' E 144°56'0 0.0
2018-Jan-20 05:16S 37°51' E 144°56'0 0.0
2018-Jan-20 04:49S 37°51' E 144°56'0 0.0
2018-Jan-20 04:10S 37°51' E 144°56'0 0.0
2018-Jan-20 03:55S 37°51' E 144°56'0 0.0
2018-Jan-20 03:25S 37°51' E 144°56'0 0.0
2018-Jan-20 02:55S 37°51' E 144°56'0 0.0
2018-Jan-20 02:28S 37°51' E 144°56'0 0.0
2018-Jan-20 01:34S 37°51' E 144°56'0 0.0
2018-Jan-20 01:28S 37°51' E 144°56'0 0.0
2018-Jan-20 00:55S 37°51' E 144°56'0 0.0
2018-Jan-20 00:19S 37°51' E 144°56'0 0.0
2018-Jan-19 21:49S 37°51' E 144°56'0 0.0
2018-Jan-19 19:58S 37°51' E 144°56'0 0.0
2018-Jan-19 18:49S 37°51' E 144°56'0 0.0
2018-Jan-19 18:28S 37°51' E 144°56'0 0.0
2018-Jan-19 17:58S 37°51' E 144°56'0 0.0
2018-Jan-19 17:22S 37°51' E 144°56'0 0.0
2018-Jan-19 16:52S 37°51' E 144°56'0 0.0
2018-Jan-19 16:16S 37°51' E 144°56'0 0.0
2018-Jan-19 15:49S 37°51' E 144°56'0 0.0
2018-Jan-19 15:25S 37°51' E 144°56'0 0.0
2018-Jan-19 14:55S 37°51' E 144°56'0 0.0
2018-Jan-19 14:28S 37°51' E 144°56'0 0.0
2018-Jan-19 13:55S 37°51' E 144°56'0 0.0
2018-Jan-19 13:16S 37°51' E 144°56'0 0.0
2018-Jan-19 12:58S 37°51' E 144°56'0 0.0
2018-Jan-19 12:22S 37°51' E 144°56'0 0.0
2018-Jan-19 11:10S 37°51' E 144°56'0 0.0
2018-Jan-19 10:58S 37°51' E 144°56'0 0.0
2018-Jan-19 09:43S 37°51' E 144°56'0 0.0
2018-Jan-19 09:13S 37°51' E 144°56'0 0.0
2018-Jan-19 07:28S 37°51' E 144°56'0 0.0
2018-Jan-19 06:04S 37°51' E 144°56'0 0.0
2018-Jan-19 05:40S 37°51' E 144°56'0 0.0
2018-Jan-19 05:28S 37°51' E 144°56'0 0.0
2018-Jan-19 04:49S 37°51' E 144°56'0 0.0
2018-Jan-19 04:28S 37°51' E 144°56'0 0.0
2018-Jan-19 03:52S 37°51' E 144°56'0 0.0
2018-Jan-18 22:22S 37°51' E 144°56'0 0.2
2018-Jan-18 22:00S 37°51' E 144°56'0 0.8
2018-Jan-18 21:28S 37°51' E 144°56'5 9.7
2018-Jan-18 21:00S 37°56' E 144°56'611.6
2018-Jan-18 20:29S 38°02' E 144°55'35 8.8
2018-Jan-18 16:31S 38°35' E 144°40'5018.1
2018-Jan-18 13:45S 39°01' E 145°35'520.0
2018-Jan-18 13:31S 39°03' E 145°41'1919.5
2018-Jan-18 12:33S 39°09' E 146°03'118.9
2018-Jan-18 12:30S 39°09' E 146°04'1020.1
2018-Jan-18 12:00S 39°11' E 146°17'1020.5
2018-Jan-18 11:30S 39°09' E 146°30'1020.2
2018-Jan-18 11:01S 39°06' E 146°42'1020.5
2018-Jan-18 10:30S 39°02' E 146°55'1020.2
2018-Jan-18 10:00S 38°59' E 147°07'1020.2
2018-Jan-18 09:30S 38°56' E 147°19'1020.2
2018-Jan-18 09:00S 38°53' E 147°32'1019.9
2018-Jan-18 08:31S 38°50' E 147°43'1019.8
2018-Jan-18 08:00S 38°47' E 147°56'1119.9
2018-Jan-18 07:29S 38°44' E 148°09'919.5
2018-Jan-18 07:00S 38°39' E 148°19'1020.1
2018-Jan-18 06:31S 38°33' E 148°29'1120.3
2018-Jan-18 05:59S 38°27' E 148°41'1020.4
2018-Jan-18 05:30S 38°22' E 148°51'1120.2
2018-Jan-18 04:59S 38°16' E 149°03'919.9
2018-Jan-18 04:30S 38°11' E 149°12'1119.8
2018-Jan-18 03:57S 38°05' E 149°24'919.9
2018-Jan-18 03:30S 38°00' E 149°34'1019.9
2018-Jan-18 03:00S 37°55' E 149°44'1020.2
2018-Jan-18 02:31S 37°49' E 149°55'1020.4
2018-Jan-18 02:01S 37°44' E 150°05'1019.3
2018-Jan-18 01:29S 37°36' E 150°13'  

Dump ship's entire track history